createdAt,value
2023-02-12T00:01:37.000Z,82.10
2023-02-12T00:11:37.000Z,81.00
2023-02-12T00:21:37.000Z,75.80
2023-02-12T00:31:37.000Z,73.70
2023-02-12T00:41:37.000Z,75.60
2023-02-12T01:01:38.000Z,75.70
2023-02-12T01:11:38.000Z,70.80
2023-02-12T01:21:38.000Z,67.30
2023-02-12T01:31:38.000Z,67.10
2023-02-12T01:41:38.000Z,64.50
2023-02-12T01:51:38.000Z,67.00
2023-02-12T02:01:39.000Z,61.30
2023-02-12T02:11:39.000Z,61.30
2023-02-12T02:31:39.000Z,55.60
2023-02-12T02:41:39.000Z,59.20
2023-02-12T02:51:39.000Z,54.60
2023-02-12T03:01:39.000Z,52.20
2023-02-12T03:11:39.000Z,57.50
2023-02-12T03:21:40.000Z,55.70
2023-02-12T03:31:40.000Z,53.70
2023-02-12T03:41:40.000Z,56.60
2023-02-12T04:01:40.000Z,52.90
2023-02-12T04:11:40.000Z,54.40
2023-02-12T04:21:40.000Z,57.40
2023-02-12T04:31:40.000Z,58.20
2023-02-12T04:41:41.000Z,57.10
2023-02-12T04:51:41.000Z,57.50
2023-02-12T05:01:41.000Z,54.00
2023-02-12T05:11:41.000Z,57.70
2023-02-12T05:31:41.000Z,55.10
2023-02-12T05:41:41.000Z,56.80
2023-02-12T05:51:41.000Z,55.00
2023-02-12T06:01:41.000Z,56.70
2023-02-12T06:11:41.000Z,51.70
2023-02-12T06:21:41.000Z,53.70
2023-02-12T06:31:42.000Z,54.20
2023-02-12T06:41:42.000Z,51.30
2023-02-12T07:01:42.000Z,52.90
2023-02-12T07:11:42.000Z,55.00
2023-02-12T07:21:42.000Z,57.20
2023-02-12T07:31:42.000Z,62.20
2023-02-12T07:41:42.000Z,56.10
2023-02-12T07:51:42.000Z,51.60
2023-02-12T08:01:42.000Z,51.50
2023-02-12T08:11:42.000Z,51.80
2023-02-12T08:31:43.000Z,57.00
2023-02-12T08:41:43.000Z,56.10
2023-02-12T08:51:43.000Z,56.40
2023-02-12T09:01:43.000Z,58.80
2023-02-12T09:11:43.000Z,56.20
2023-02-12T09:21:43.000Z,59.30
2023-02-12T09:31:43.000Z,59.30
2023-02-12T09:41:43.000Z,58.30
2023-02-12T10:01:43.000Z,56.00
2023-02-12T10:11:43.000Z,61.30
2023-02-12T10:21:43.000Z,54.20
2023-02-12T10:31:43.000Z,44.30
2023-02-12T10:41:43.000Z,36.10
2023-02-12T10:51:43.000Z,34.60
2023-02-12T11:01:43.000Z,28.30
2023-02-12T11:11:43.000Z,32.60
2023-02-12T11:31:43.000Z,27.40
2023-02-12T11:41:43.000Z,31.00
2023-02-12T11:51:43.000Z,29.00
2023-02-12T12:01:43.000Z,26.90
2023-02-12T12:11:43.000Z,32.80
2023-02-12T12:21:43.000Z,28.50
2023-02-12T12:31:43.000Z,26.80
2023-02-12T12:41:43.000Z,34.50
2023-02-12T13:01:43.000Z,35.50
2023-02-12T13:11:43.000Z,36.40
2023-02-12T13:21:43.000Z,34.80
2023-02-12T13:31:43.000Z,35.90
2023-02-12T13:41:43.000Z,37.50
2023-02-12T13:51:43.000Z,36.70
2023-02-12T14:01:43.000Z,37.10
2023-02-12T14:11:43.000Z,31.70
2023-02-12T14:31:43.000Z,38.40
2023-02-12T14:41:43.000Z,35.50
2023-02-12T14:51:43.000Z,35.00
2023-02-12T15:01:43.000Z,32.30
2023-02-12T15:11:43.000Z,28.30
2023-02-12T15:21:43.000Z,31.60
2023-02-12T15:31:43.000Z,32.10
2023-02-12T15:41:43.000Z,35.60
2023-02-12T16:01:43.000Z,39.90
2023-02-12T16:11:43.000Z,41.60
2023-02-12T16:21:43.000Z,43.50
2023-02-12T16:31:43.000Z,40.50
2023-02-12T16:41:43.000Z,44.60
2023-02-12T16:51:43.000Z,45.70
2023-02-12T17:01:42.000Z,39.80
2023-02-12T17:11:42.000Z,45.70
2023-02-12T17:31:42.000Z,46.70
2023-02-12T17:41:42.000Z,46.80
2023-02-12T17:51:42.000Z,52.80
2023-02-12T18:01:42.000Z,52.10
2023-02-12T18:11:42.000Z,54.20
2023-02-12T18:21:42.000Z,81.30
2023-02-12T18:31:42.000Z,54.40
2023-02-12T18:41:42.000Z,51.90
2023-02-12T19:01:42.000Z,62.70
2023-02-12T19:11:42.000Z,101.20
2023-02-12T19:21:42.000Z,49.60
2023-02-12T19:31:42.000Z,43.30
2023-02-12T19:41:42.000Z,56.90
2023-02-12T19:51:42.000Z,41.60
2023-02-12T20:01:42.000Z,40.70
2023-02-12T20:11:42.000Z,41.20
2023-02-12T20:31:42.000Z,43.40
2023-02-12T20:41:42.000Z,45.60
2023-02-12T20:51:42.000Z,41.50
2023-02-12T21:01:42.000Z,39.70
2023-02-12T21:11:41.000Z,36.00
2023-02-12T21:21:41.000Z,35.00
2023-02-12T21:31:41.000Z,33.40
2023-02-12T21:41:41.000Z,33.30
2023-02-12T22:01:41.000Z,32.10
2023-02-12T22:11:42.000Z,35.40
2023-02-12T22:21:42.000Z,33.80
2023-02-12T22:31:42.000Z,37.30
2023-02-12T22:41:42.000Z,35.00
2023-02-12T22:51:42.000Z,35.40
2023-02-12T23:01:42.000Z,34.60
2023-02-12T23:11:42.000Z,35.80
2023-02-12T23:31:41.000Z,34.30
2023-02-12T23:41:42.000Z,36.50
2023-02-12T23:51:42.000Z,35.30
